sensor_id;sensor_type;location;lat;lon;timestamp;pressure;altitude;pressure_sealevel;temperature;humidity
13800;BME280;6971;50.028;9.258;2024-03-08T00:02:05;99563.38;;;1.73;100.00
13800;BME280;6971;50.028;9.258;2024-03-08T00:07:05;99555.06;;;1.52;100.00
13800;BME280;6971;50.028;9.258;2024-03-08T00:12:07;99552.47;;;1.52;100.00
13800;BME280;6971;50.028;9.258;2024-03-08T00:17:07;99555.00;;;1.55;100.00
13800;BME280;6971;50.028;9.258;2024-03-08T00:22:09;99551.59;;;1.50;100.00
13800;BME280;6971;50.028;9.258;2024-03-08T00:27:11;99555.34;;;1.32;100.00
13800;BME280;6971;50.028;9.258;2024-03-08T00:32:12;99545.13;;;1.17;100.00
13800;BME280;6971;50.028;9.258;2024-03-08T00:37:13;99541.47;;;1.34;100.00
13800;BME280;6971;50.028;9.258;2024-03-08T00:42:13;99539.81;;;1.28;100.00
13800;BME280;6971;50.028;9.258;2024-03-08T00:47:14;99529.44;;;1.27;100.00
13800;BME280;6971;50.028;9.258;2024-03-08T00:52:14;99532.81;;;1.32;100.00
13800;BME280;6971;50.028;9.258;2024-03-08T00:57:15;99533.75;;;1.26;100.00
13800;BME280;6971;50.028;9.258;2024-03-08T01:02:15;99529.72;;;1.07;100.00
13800;BME280;6971;50.028;9.258;2024-03-08T01:07:18;99517.53;;;1.10;100.00
13800;BME280;6971;50.028;9.258;2024-03-08T01:12:19;99525.28;;;1.15;100.00
13800;BME280;6971;50.028;9.258;2024-03-08T01:17:20;99507.13;;;1.13;100.00
13800;BME280;6971;50.028;9.258;2024-03-08T01:22:20;99495.84;;;1.14;100.00
13800;BME280;6971;50.028;9.258;2024-03-08T01:27:21;99500.25;;;1.09;100.00
13800;BME280;6971;50.028;9.258;2024-03-08T01:32:22;99496.06;;;1.00;100.00
13800;BME280;6971;50.028;9.258;2024-03-08T01:37:23;99493.75;;;0.77;100.00
13800;BME280;6971;50.028;9.258;2024-03-08T01:42:24;99483.53;;;0.63;100.00
13800;BME280;6971;50.028;9.258;2024-03-08T01:47:25;99469.91;;;0.47;100.00
13800;BME280;6971;50.028;9.258;2024-03-08T01:52:25;99464.84;;;0.36;100.00
13800;BME280;6971;50.028;9.258;2024-03-08T01:57:27;99457.06;;;0.37;100.00
13800;BME280;6971;50.028;9.258;2024-03-08T02:02:28;99452.75;;;0.35;100.00
13800;BME280;6971;50.028;9.258;2024-03-08T02:07:31;99455.66;;;0.07;100.00
13800;BME280;6971;50.028;9.258;2024-03-08T02:12:31;99450.34;;;0.18;100.00
13800;BME280;6971;50.028;9.258;2024-03-08T02:17:32;99446.22;;;-0.01;100.00
13800;BME280;6971;50.028;9.258;2024-03-08T02:22:33;99438.78;;;-0.35;100.00
13800;BME280;6971;50.028;9.258;2024-03-08T02:27:33;99433.56;;;-0.32;100.00
13800;BME280;6971;50.028;9.258;2024-03-08T02:32:34;99438.75;;;-0.33;100.00
13800;BME280;6971;50.028;9.258;2024-03-08T02:37:34;99430.28;;;-0.49;100.00
13800;BME280;6971;50.028;9.258;2024-03-08T02:42:34;99425.09;;;-0.48;100.00
13800;BME280;6971;50.028;9.258;2024-03-08T02:47:35;99414.03;;;-0.66;100.00
13800;BME280;6971;50.028;9.258;2024-03-08T02:52:36;99406.19;;;-0.59;100.00
13800;BME280;6971;50.028;9.258;2024-03-08T02:57:36;99411.44;;;-0.66;100.00
13800;BME280;6971;50.028;9.258;2024-03-08T03:02:37;99406.28;;;-0.72;100.00
13800;BME280;6971;50.028;9.258;2024-03-08T03:07:37;99406.34;;;-0.80;100.00
13800;BME280;6971;50.028;9.258;2024-03-08T03:12:38;99396.09;;;-0.90;100.00
13800;BME280;6971;50.028;9.258;2024-03-08T03:17:39;99393.50;;;-0.94;100.00
13800;BME280;6971;50.028;9.258;2024-03-08T03:22:41;99383.16;;;-0.94;100.00
13800;BME280;6971;50.028;9.258;2024-03-08T03:27:41;99380.63;;;-0.98;100.00
13800;BME280;6971;50.028;9.258;2024-03-08T03:32:42;99374.66;;;-1.08;100.00
13800;BME280;6971;50.028;9.258;2024-03-08T03:37:47;99368.66;;;-1.10;100.00
13800;BME280;6971;50.028;9.258;2024-03-08T03:43:06;99361.78;;;-1.16;100.00
13800;BME280;6971;50.028;9.258;2024-03-08T03:48:07;99365.16;;;-1.08;100.00
13800;BME280;6971;50.028;9.258;2024-03-08T03:53:11;99362.66;;;-1.20;100.00
13800;BME280;6971;50.028;9.258;2024-03-08T03:58:13;99359.19;;;-1.17;100.00
13800;BME280;6971;50.028;9.258;2024-03-08T04:03:14;99352.34;;;-1.25;100.00
13800;BME280;6971;50.028;9.258;2024-03-08T04:08:15;99345.47;;;-1.29;100.00
13800;BME280;6971;50.028;9.258;2024-03-08T04:13:17;99345.50;;;-1.32;100.00
13800;BME280;6971;50.028;9.258;2024-03-08T04:18:17;99329.94;;;-1.29;100.00
13800;BME280;6971;50.028;9.258;2024-03-08T04:23:19;99336.94;;;-1.37;100.00
13800;BME280;6971;50.028;9.258;2024-03-08T04:28:20;99330.00;;;-1.34;100.00
13800;BME280;6971;50.028;9.258;2024-03-08T04:33:20;99333.34;;;-1.21;100.00
13800;BME280;6971;50.028;9.258;2024-03-08T04:38:21;99321.22;;;-1.14;100.00
13800;BME280;6971;50.028;9.258;2024-03-08T04:43:22;99320.28;;;-1.02;100.00
13800;BME280;6971;50.028;9.258;2024-03-08T04:48:25;99331.22;;;-0.72;100.00
13800;BME280;6971;50.028;9.258;2024-03-08T04:53:28;99326.00;;;-0.67;100.00
13800;BME280;6971;50.028;9.258;2024-03-08T04:58:29;99316.53;;;-0.68;100.00
13800;BME280;6971;50.028;9.258;2024-03-08T05:03:29;99309.50;;;-0.57;100.00
13800;BME280;6971;50.028;9.258;2024-03-08T05:08:30;99308.50;;;-0.42;100.00
13800;BME280;6971;50.028;9.258;2024-03-08T05:13:30;99311.97;;;-0.43;100.00
13800;BME280;6971;50.028;9.258;2024-03-08T05:18:31;99313.66;;;-0.38;100.00
13800;BME280;6971;50.028;9.258;2024-03-08T05:23:32;99310.28;;;-0.48;100.00
13800;BME280;6971;50.028;9.258;2024-03-08T05:28:32;99294.63;;;-0.37;100.00
13800;BME280;6971;50.028;9.258;2024-03-08T05:33:33;99291.28;;;-0.46;100.00
13800;BME280;6971;50.028;9.258;2024-03-08T05:38:34;99292.13;;;-0.42;100.00
13800;BME280;6971;50.028;9.258;2024-03-08T05:43:35;99294.72;;;-0.44;100.00
13800;BME280;6971;50.028;9.258;2024-03-08T05:48:35;99295.69;;;-0.56;100.00
13800;BME280;6971;50.028;9.258;2024-03-08T05:53:35;99294.06;;;-0.64;100.00
13800;BME280;6971;50.028;9.258;2024-03-08T05:58:36;99287.91;;;-0.54;100.00
13800;BME280;6971;50.028;9.258;2024-03-08T06:03:36;99288.78;;;-0.57;100.00
13800;BME280;6971;50.028;9.258;2024-03-08T06:08:36;99287.22;;;-0.72;100.00
13800;BME280;6971;50.028;9.258;2024-03-08T06:13:37;99282.03;;;-0.69;100.00
13800;BME280;6971;50.028;9.258;2024-03-08T06:18:37;99294.81;;;-0.53;100.00
13800;BME280;6971;50.028;9.258;2024-03-08T06:23:39;99292.13;;;-0.44;100.00
13800;BME280;6971;50.028;9.258;2024-03-08T06:28:39;99296.22;;;-0.24;100.00
13800;BME280;6971;50.028;9.258;2024-03-08T06:33:40;99278.97;;;-0.27;100.00
13800;BME280;6971;50.028;9.258;2024-03-08T06:38:40;99288.28;;;-0.10;100.00
13800;BME280;6971;50.028;9.258;2024-03-08T06:43:46;99288.94;;;0.06;100.00
13800;BME280;6971;50.028;9.258;2024-03-08T06:48:48;99289.69;;;0.16;100.00
13800;BME280;6971;50.028;9.258;2024-03-08T06:53:49;99291.28;;;0.25;100.00
13800;BME280;6971;50.028;9.258;2024-03-08T06:58:49;99294.59;;;0.36;100.00
13800;BME280;6971;50.028;9.258;2024-03-08T07:03:50;99291.84;;;0.46;100.00
13800;BME280;6971;50.028;9.258;2024-03-08T07:08:52;99285.75;;;0.48;100.00
13800;BME280;6971;50.028;9.258;2024-03-08T07:13:52;99283.84;;;0.60;100.00
13800;BME280;6971;50.028;9.258;2024-03-08T07:18:54;99275.00;;;0.73;100.00
13800;BME280;6971;50.028;9.258;2024-03-08T07:23:54;99283.44;;;0.86;100.00
13800;BME280;6971;50.028;9.258;2024-03-08T07:29:00;99268.66;;;0.91;100.00
13800;BME280;6971;50.028;9.258;2024-03-08T07:34:01;99269.31;;;1.04;100.00
13800;BME280;6971;50.028;9.258;2024-03-08T07:39:02;99261.25;;;1.19;100.00
13800;BME280;6971;50.028;9.258;2024-03-08T07:44:02;99248.75;;;1.39;100.00
13800;BME280;6971;50.028;9.258;2024-03-08T07:49:03;99250.13;;;2.00;100.00
13800;BME280;6971;50.028;9.258;2024-03-08T07:54:04;99246.81;;;1.93;100.00
13800;BME280;6971;50.028;9.258;2024-03-08T07:59:04;99242.22;;;2.06;100.00
13800;BME280;6971;50.028;9.258;2024-03-08T08:04:05;99236.63;;;2.24;100.00
13800;BME280;6971;50.028;9.258;2024-03-08T08:09:05;99240.00;;;2.65;100.00
13800;BME280;6971;50.028;9.258;2024-03-08T08:14:06;99234.28;;;3.52;100.00
13800;BME280;6971;50.028;9.258;2024-03-08T08:19:09;99223.72;;;4.98;100.00
13800;BME280;6971;50.028;9.258;2024-03-08T08:24:10;99225.28;;;5.04;100.00
13800;BME280;6971;50.028;9.258;2024-03-08T08:29:11;99226.81;;;5.09;100.00
13800;BME280;6971;50.028;9.258;2024-03-08T08:34:11;99222.22;;;5.16;100.00
13800;BME280;6971;50.028;9.258;2024-03-08T08:39:11;99215.56;;;5.81;100.00
13800;BME280;6971;50.028;9.258;2024-03-08T08:44:13;99208.09;;;5.22;100.00
13800;BME280;6971;50.028;9.258;2024-03-08T08:49:15;99201.28;;;5.90;100.00
13800;BME280;6971;50.028;9.258;2024-03-08T08:54:20;99196.56;;;7.08;97.42
13800;BME280;6971;50.028;9.258;2024-03-08T08:59:22;99190.94;;;6.76;95.49
13800;BME280;6971;50.028;9.258;2024-03-08T09:04:25;99192.16;;;6.67;93.02
13800;BME280;6971;50.028;9.258;2024-03-08T09:09:25;99184.25;;;7.10;89.82
13800;BME280;6971;50.028;9.258;2024-03-08T09:14:25;99177.94;;;7.93;87.54
13800;BME280;6971;50.028;9.258;2024-03-08T09:19:26;99168.59;;;7.87;86.96
13800;BME280;6971;50.028;9.258;2024-03-08T09:24:26;99155.91;;;8.69;82.27
13800;BME280;6971;50.028;9.258;2024-03-08T09:29:27;99156.09;;;8.66;80.61
13800;BME280;6971;50.028;9.258;2024-03-08T09:34:27;99150.59;;;8.34;81.49
13800;BME280;6971;50.028;9.258;2024-03-08T09:39:27;99152.22;;;7.63;79.91
13800;BME280;6971;50.028;9.258;2024-03-08T09:44:28;99144.38;;;8.36;77.83
13800;BME280;6971;50.028;9.258;2024-03-08T09:49:31;99126.69;;;8.93;78.10
13800;BME280;6971;50.028;9.258;2024-03-08T09:54:31;99127.38;;;7.89;79.01
13800;BME280;6971;50.028;9.258;2024-03-08T09:59:31;99118.19;;;8.17;79.01
13800;BME280;6971;50.028;9.258;2024-03-08T10:04:39;99118.84;;;8.58;77.38
13800;BME280;6971;50.028;9.258;2024-03-08T10:09:41;99102.25;;;8.38;77.68
13800;BME280;6971;50.028;9.258;2024-03-08T10:14:47;99101.19;;;9.45;74.68
13800;BME280;6971;50.028;9.258;2024-03-08T10:19:51;99088.13;;;7.68;75.80
13800;BME280;6971;50.028;9.258;2024-03-08T10:24:54;99072.84;;;8.67;76.61
13800;BME280;6971;50.028;9.258;2024-03-08T10:29:55;99071.03;;;9.19;75.66
13800;BME280;6971;50.028;9.258;2024-03-08T10:34:55;99069.78;;;9.58;73.87
13800;BME280;6971;50.028;9.258;2024-03-08T10:40:03;99070.22;;;9.97;71.27
13800;BME280;6971;50.028;9.258;2024-03-08T10:45:23;99065.63;;;9.38;72.52
13800;BME280;6971;50.028;9.258;2024-03-08T10:50:28;99056.34;;;9.31;73.04
13800;BME280;6971;50.028;9.258;2024-03-08T10:55:33;99043.28;;;9.13;72.98
13800;BME280;6971;50.028;9.258;2024-03-08T11:00:34;99060.84;;;10.24;71.86
13800;BME280;6971;50.028;9.258;2024-03-08T11:05:40;99056.06;;;10.30;70.50
13800;BME280;6971;50.028;9.258;2024-03-08T11:10:54;99042.47;;;10.22;69.70
13800;BME280;6971;50.028;9.258;2024-03-08T11:15:55;99032.22;;;9.87;70.02
13800;BME280;6971;50.028;9.258;2024-03-08T11:20:56;99023.97;;;10.83;67.08
13800;BME280;6971;50.028;9.258;2024-03-08T11:25:57;99012.66;;;10.52;67.55
13800;BME280;6971;50.028;9.258;2024-03-08T11:36:11;99007.56;;;10.49;67.45
13800;BME280;6971;50.028;9.258;2024-03-08T11:41:21;99005.53;;;11.26;66.40
13800;BME280;6971;50.028;9.258;2024-03-08T11:46:24;98992.47;;;10.95;64.75
13800;BME280;6971;50.028;9.258;2024-03-08T11:51:24;98983.72;;;11.64;63.89
13800;BME280;6971;50.028;9.258;2024-03-08T11:56:25;98981.16;;;11.07;64.60
13800;BME280;6971;50.028;9.258;2024-03-08T12:01:25;98964.84;;;11.30;66.06
13800;BME280;6971;50.028;9.258;2024-03-08T12:06:27;98964.09;;;10.71;64.51
13800;BME280;6971;50.028;9.258;2024-03-08T12:11:36;98948.56;;;10.52;65.36
13800;BME280;6971;50.028;9.258;2024-03-08T12:16:37;98946.22;;;11.18;63.86
13800;BME280;6971;50.028;9.258;2024-03-08T12:21:37;98951.75;;;11.28;64.46
13800;BME280;6971;50.028;9.258;2024-03-08T12:26:40;98945.59;;;11.55;62.81
13800;BME280;6971;50.028;9.258;2024-03-08T12:31:42;98939.56;;;11.53;61.93
13800;BME280;6971;50.028;9.258;2024-03-08T12:36:47;98929.06;;;10.69;63.95
13800;BME280;6971;50.028;9.258;2024-03-08T12:41:48;98916.69;;;10.99;64.32
13800;BME280;6971;50.028;9.258;2024-03-08T12:46:53;98915.28;;;11.48;63.38
13800;BME280;6971;50.028;9.258;2024-03-08T12:51:53;98901.44;;;11.04;62.10
13800;BME280;6971;50.028;9.258;2024-03-08T12:56:54;98899.50;;;10.20;63.78
13800;BME280;6971;50.028;9.258;2024-03-08T13:01:54;98878.25;;;10.67;64.79
13800;BME280;6971;50.028;9.258;2024-03-08T13:06:55;98876.00;;;10.31;63.80
13800;BME280;6971;50.028;9.258;2024-03-08T13:11:55;98876.50;;;11.22;61.75
13800;BME280;6971;50.028;9.258;2024-03-08T13:16:58;98872.63;;;10.15;63.35
13800;BME280;6971;50.028;9.258;2024-03-08T13:21:59;98874.53;;;10.56;61.34
13800;BME280;6971;50.028;9.258;2024-03-08T13:26:59;98877.16;;;10.56;62.79
13800;BME280;6971;50.028;9.258;2024-03-08T13:32:00;98867.25;;;11.02;61.80
13800;BME280;6971;50.028;9.258;2024-03-08T13:37:02;98860.41;;;10.43;63.01
13800;BME280;6971;50.028;9.258;2024-03-08T13:42:03;98855.53;;;10.79;63.56
13800;BME280;6971;50.028;9.258;2024-03-08T13:47:09;98835.50;;;10.76;62.26
13800;BME280;6971;50.028;9.258;2024-03-08T13:52:12;98825.72;;;10.78;63.52
13800;BME280;6971;50.028;9.258;2024-03-08T13:57:16;98819.19;;;10.56;63.89
13800;BME280;6971;50.028;9.258;2024-03-08T14:02:18;98805.00;;;11.00;62.74
13800;BME280;6971;50.028;9.258;2024-03-08T14:07:19;98795.97;;;11.17;62.18
13800;BME280;6971;50.028;9.258;2024-03-08T14:12:20;98793.06;;;10.66;62.28
13800;BME280;6971;50.028;9.258;2024-03-08T14:17:20;98788.66;;;10.67;61.80
13800;BME280;6971;50.028;9.258;2024-03-08T14:22:20;98777.25;;;10.94;60.83
13800;BME280;6971;50.028;9.258;2024-03-08T14:27:21;98762.78;;;10.87;59.68
13800;BME280;6971;50.028;9.258;2024-03-08T14:32:22;98751.78;;;10.67;58.76
13800;BME280;6971;50.028;9.258;2024-03-08T14:37:24;98745.63;;;10.94;60.05
13800;BME280;6971;50.028;9.258;2024-03-08T14:42:28;98740.00;;;10.86;59.59
13800;BME280;6971;50.028;9.258;2024-03-08T14:47:28;98726.88;;;10.43;60.46
13800;BME280;6971;50.028;9.258;2024-03-08T14:52:28;98723.38;;;10.57;59.97
13800;BME280;6971;50.028;9.258;2024-03-08T14:57:30;98714.41;;;10.47;59.99
13800;BME280;6971;50.028;9.258;2024-03-08T15:02:32;98712.53;;;10.35;59.78
13800;BME280;6971;50.028;9.258;2024-03-08T15:07:39;98695.34;;;10.56;60.20
13800;BME280;6971;50.028;9.258;2024-03-08T15:12:40;98686.31;;;10.61;60.37
13800;BME280;6971;50.028;9.258;2024-03-08T15:17:41;98680.94;;;10.20;59.31
13800;BME280;6971;50.028;9.258;2024-03-08T15:22:43;98666.47;;;10.40;60.40
13800;BME280;6971;50.028;9.258;2024-03-08T15:27:46;98661.00;;;10.30;60.37
13800;BME280;6971;50.028;9.258;2024-03-08T15:32:49;98671.72;;;10.27;59.27
13800;BME280;6971;50.028;9.258;2024-03-08T15:37:56;98670.81;;;10.14;59.05
13800;BME280;6971;50.028;9.258;2024-03-08T15:42:57;98669.59;;;10.19;60.79
13800;BME280;6971;50.028;9.258;2024-03-08T15:47:58;98654.59;;;10.07;60.08
13800;BME280;6971;50.028;9.258;2024-03-08T15:52:58;98663.75;;;9.87;59.41
13800;BME280;6971;50.028;9.258;2024-03-08T15:57:59;98638.38;;;9.71;59.91
13800;BME280;6971;50.028;9.258;2024-03-08T16:03:01;98635.97;;;9.68;60.15
13800;BME280;6971;50.028;9.258;2024-03-08T16:08:12;98632.22;;;9.58;62.03
13800;BME280;6971;50.028;9.258;2024-03-08T16:13:15;98626.41;;;9.52;62.78
13800;BME280;6971;50.028;9.258;2024-03-08T16:18:18;98625.84;;;9.47;63.92
13800;BME280;6971;50.028;9.258;2024-03-08T16:23:22;98626.69;;;9.33;64.55
13800;BME280;6971;50.028;9.258;2024-03-08T16:28:23;98623.81;;;9.23;65.10
13800;BME280;6971;50.028;9.258;2024-03-08T16:33:26;98614.03;;;9.11;66.43
13800;BME280;6971;50.028;9.258;2024-03-08T16:38:26;98614.97;;;8.95;66.99
13800;BME280;6971;50.028;9.258;2024-03-08T16:43:27;98601.25;;;8.90;66.85
13800;BME280;6971;50.028;9.258;2024-03-08T16:48:27;98610.63;;;8.80;67.08
13800;BME280;6971;50.028;9.258;2024-03-08T16:53:30;98605.38;;;8.65;68.69
13800;BME280;6971;50.028;9.258;2024-03-08T16:58:31;98608.50;;;8.56;68.47
13800;BME280;6971;50.028;9.258;2024-03-08T17:03:33;98604.63;;;8.47;69.02
13800;BME280;6971;50.028;9.258;2024-03-08T17:08:34;98595.78;;;8.33;69.34
13800;BME280;6971;50.028;9.258;2024-03-08T17:13:35;98597.50;;;8.18;70.95
13800;BME280;6971;50.028;9.258;2024-03-08T17:18:36;98608.94;;;8.17;70.15
13800;BME280;6971;50.028;9.258;2024-03-08T17:23:36;98602.50;;;8.07;70.94
13800;BME280;6971;50.028;9.258;2024-03-08T17:28:37;98601.94;;;8.02;71.04
13800;BME280;6971;50.028;9.258;2024-03-08T17:33:41;98594.59;;;7.92;71.23
13800;BME280;6971;50.028;9.258;2024-03-08T17:38:42;98590.53;;;7.70;72.25
13800;BME280;6971;50.028;9.258;2024-03-08T17:43:46;98582.59;;;7.72;72.01
13800;BME280;6971;50.028;9.258;2024-03-08T17:48:46;98597.75;;;7.67;72.00
13800;BME280;6971;50.028;9.258;2024-03-08T17:53:47;98603.91;;;7.50;75.63
13800;BME280;6971;50.028;9.258;2024-03-08T17:58:49;98589.59;;;7.39;74.11
13800;BME280;6971;50.028;9.258;2024-03-08T18:03:50;98588.34;;;7.30;74.57
13800;BME280;6971;50.028;9.258;2024-03-08T18:08:51;98591.19;;;7.10;76.21
13800;BME280;6971;50.028;9.258;2024-03-08T18:13:52;98586.75;;;6.76;79.23
13800;BME280;6971;50.028;9.258;2024-03-08T18:18:52;98589.63;;;6.72;80.79
13800;BME280;6971;50.028;9.258;2024-03-08T18:23:53;98577.88;;;6.27;85.54
13800;BME280;6971;50.028;9.258;2024-03-08T18:28:53;98573.47;;;6.10;87.33
13800;BME280;6971;50.028;9.258;2024-03-08T18:33:53;98563.69;;;6.14;86.84
13800;BME280;6971;50.028;9.258;2024-03-08T18:38:54;98569.47;;;6.03;89.46
13800;BME280;6971;50.028;9.258;2024-03-08T18:43:54;98554.50;;;5.87;92.10
13800;BME280;6971;50.028;9.258;2024-03-08T18:48:58;98554.94;;;5.78;93.97
13800;BME280;6971;50.028;9.258;2024-03-08T18:53:59;98547.78;;;6.54;88.05
13800;BME280;6971;50.028;9.258;2024-03-08T18:59:00;98547.91;;;6.51;86.93
13800;BME280;6971;50.028;9.258;2024-03-08T19:04:00;98543.50;;;6.69;85.44
13800;BME280;6971;50.028;9.258;2024-03-08T19:09:00;98545.13;;;6.72;85.30
13800;BME280;6971;50.028;9.258;2024-03-08T19:14:04;98538.00;;;6.74;85.00
13800;BME280;6971;50.028;9.258;2024-03-08T19:19:05;98534.13;;;6.65;85.72
13800;BME280;6971;50.028;9.258;2024-03-08T19:24:06;98528.88;;;6.65;85.38
13800;BME280;6971;50.028;9.258;2024-03-08T19:29:07;98517.75;;;6.61;85.06
13800;BME280;6971;50.028;9.258;2024-03-08T19:34:11;98521.44;;;6.57;85.29
13800;BME280;6971;50.028;9.258;2024-03-08T19:39:12;98517.44;;;6.50;85.22
13800;BME280;6971;50.028;9.258;2024-03-08T19:44:12;98511.44;;;6.48;85.35
13800;BME280;6971;50.028;9.258;2024-03-08T19:49:15;98518.66;;;6.43;85.13
13800;BME280;6971;50.028;9.258;2024-03-08T19:54:16;98517.13;;;6.38;85.48
13800;BME280;6971;50.028;9.258;2024-03-08T19:59:17;98515.59;;;6.34;85.73
13800;BME280;6971;50.028;9.258;2024-03-08T20:04:18;98517.78;;;6.26;85.77
13800;BME280;6971;50.028;9.258;2024-03-08T20:09:18;98517.53;;;6.13;86.57
13800;BME280;6971;50.028;9.258;2024-03-08T20:14:19;98522.16;;;6.08;87.04
13800;BME280;6971;50.028;9.258;2024-03-08T20:19:19;98520.72;;;6.00;87.57
13800;BME280;6971;50.028;9.258;2024-03-08T20:24:21;98517.75;;;5.91;87.95
13800;BME280;6971;50.028;9.258;2024-03-08T20:29:22;98511.25;;;5.80;88.91
13800;BME280;6971;50.028;9.258;2024-03-08T20:34:23;98513.13;;;5.78;89.05
13800;BME280;6971;50.028;9.258;2024-03-08T20:39:23;98510.09;;;5.68;89.59
13800;BME280;6971;50.028;9.258;2024-03-08T20:44:23;98500.78;;;5.62;90.47
13800;BME280;6971;50.028;9.258;2024-03-08T20:49:24;98488.09;;;5.55;90.23
13800;BME280;6971;50.028;9.258;2024-03-08T20:54:25;98491.69;;;5.52;90.03
13800;BME280;6971;50.028;9.258;2024-03-08T20:59:25;98507.69;;;5.46;90.58
13800;BME280;6971;50.028;9.258;2024-03-08T21:04:25;98508.81;;;5.40;90.27
13800;BME280;6971;50.028;9.258;2024-03-08T21:09:28;98501.19;;;5.35;91.08
13800;BME280;6971;50.028;9.258;2024-03-08T21:14:30;98495.47;;;5.27;91.32
13800;BME280;6971;50.028;9.258;2024-03-08T21:19:33;98499.44;;;5.17;92.20
13800;BME280;6971;50.028;9.258;2024-03-08T21:24:34;98492.59;;;5.14;92.79
13800;BME280;6971;50.028;9.258;2024-03-08T21:29:35;98505.16;;;5.06;93.62
13800;BME280;6971;50.028;9.258;2024-03-08T21:34:39;98497.53;;;5.01;94.31
13800;BME280;6971;50.028;9.258;2024-03-08T21:39:39;98503.34;;;4.89;95.23
13800;BME280;6971;50.028;9.258;2024-03-08T21:44:40;98494.72;;;4.87;96.04
13800;BME280;6971;50.028;9.258;2024-03-08T21:49:40;98493.31;;;4.79;96.85
13800;BME280;6971;50.028;9.258;2024-03-08T21:54:45;98490.13;;;4.73;97.40
13800;BME280;6971;50.028;9.258;2024-03-08T21:59:45;98489.28;;;4.72;97.96
13800;BME280;6971;50.028;9.258;2024-03-08T22:04:46;98497.78;;;4.56;99.30
13800;BME280;6971;50.028;9.258;2024-03-08T22:09:46;98501.31;;;4.55;99.93
13800;BME280;6971;50.028;9.258;2024-03-08T22:14:47;98516.13;;;4.55;100.00
13800;BME280;6971;50.028;9.258;2024-03-08T22:19:47;98504.19;;;4.49;100.00
13800;BME280;6971;50.028;9.258;2024-03-08T22:24:48;98500.16;;;4.42;100.00
13800;BME280;6971;50.028;9.258;2024-03-08T22:29:53;98490.00;;;4.36;100.00
13800;BME280;6971;50.028;9.258;2024-03-08T22:34:53;98481.38;;;4.34;100.00
13800;BME280;6971;50.028;9.258;2024-03-08T22:39:54;98487.09;;;4.21;100.00
13800;BME280;6971;50.028;9.258;2024-03-08T22:44:54;98480.22;;;4.20;100.00
13800;BME280;6971;50.028;9.258;2024-03-08T22:49:55;98479.69;;;4.12;100.00
13800;BME280;6971;50.028;9.258;2024-03-08T22:54:55;98479.03;;;4.07;100.00
13800;BME280;6971;50.028;9.258;2024-03-08T22:59:56;98469.72;;;4.01;100.00
13800;BME280;6971;50.028;9.258;2024-03-08T23:04:56;98473.69;;;3.89;100.00
13800;BME280;6971;50.028;9.258;2024-03-08T23:09:57;98460.13;;;3.81;100.00
13800;BME280;6971;50.028;9.258;2024-03-08T23:14:58;98477.38;;;3.83;100.00
13800;BME280;6971;50.028;9.258;2024-03-08T23:19:59;98476.09;;;3.73;100.00
13800;BME280;6971;50.028;9.258;2024-03-08T23:24:59;98479.41;;;3.56;100.00
13800;BME280;6971;50.028;9.258;2024-03-08T23:30:00;98500.25;;;3.56;100.00
13800;BME280;6971;50.028;9.258;2024-03-08T23:35:00;98494.59;;;3.44;100.00
13800;BME280;6971;50.028;9.258;2024-03-08T23:40:00;98502.41;;;3.44;100.00
13800;BME280;6971;50.028;9.258;2024-03-08T23:45:01;98483.56;;;3.37;100.00
13800;BME280;6971;50.028;9.258;2024-03-08T23:50:01;98473.34;;;3.33;100.00
13800;BME280;6971;50.028;9.258;2024-03-08T23:55:02;98465.59;;;3.31;100.00
